createdAt,value
2023-04-03T00:01:22.936Z,98524.63
2023-04-03T00:03:51.247Z,98505.41
2023-04-03T00:06:20.020Z,98523.72
2023-04-03T00:08:49.665Z,98538.75
2023-04-03T00:11:18.489Z,98530.84
2023-04-03T00:13:47.030Z,98535.38
2023-04-03T00:16:15.175Z,98519.91
2023-04-03T00:18:43.374Z,98510.88
2023-04-03T00:21:15.161Z,98517.94
2023-04-03T00:23:43.319Z,98503.75
2023-04-03T00:26:12.963Z,98499.50
2023-04-03T00:28:42.128Z,98517.41
2023-04-03T00:31:10.226Z,98525.19
2023-04-03T00:33:38.363Z,98526.44
2023-04-03T00:36:10.520Z,98526.41
2023-04-03T00:38:39.113Z,98521.63
2023-04-03T00:41:07.865Z,98533.63
2023-04-03T00:43:37.385Z,98532.53
2023-04-03T00:46:05.934Z,98519.69
2023-04-03T00:48:37.401Z,98555.84
2023-04-03T00:51:08.022Z,98517.75
2023-04-03T00:53:41.014Z,98552.22
2023-04-03T00:56:12.838Z,98534.31
2023-04-03T00:58:46.631Z,98532.25
2023-04-03T01:01:21.060Z,98542.31
2023-04-03T01:03:49.310Z,98528.94
2023-04-03T01:06:19.581Z,98555.50
2023-04-03T01:08:52.425Z,98536.25
2023-04-03T01:11:21.737Z,98516.34
2023-04-03T01:13:51.909Z,98511.00
2023-04-03T01:16:20.721Z,98550.81
2023-04-03T01:18:49.067Z,98527.78
2023-04-03T01:21:54.840Z,98531.06
2023-04-03T01:24:40.082Z,98559.19
2023-04-03T01:27:13.238Z,98541.28
2023-04-03T01:29:44.649Z,98565.78
2023-04-03T01:32:14.512Z,98571.63
2023-04-03T01:34:43.555Z,98561.91
2023-04-03T01:37:11.743Z,98560.78
2023-04-03T01:39:39.825Z,98540.66
2023-04-03T01:42:08.272Z,98546.94
2023-04-03T01:44:40.613Z,98573.19
2023-04-03T01:47:09.212Z,98566.44
2023-04-03T01:49:39.962Z,98581.88
2023-04-03T01:52:08.446Z,98581.19
2023-04-03T01:54:36.534Z,98569.16
2023-04-03T01:57:04.807Z,98578.69
2023-04-03T01:59:33.314Z,98597.25
2023-04-03T02:02:01.442Z,98577.53
2023-04-03T02:04:29.550Z,98543.25
2023-04-03T02:06:59.833Z,98589.28
2023-04-03T02:09:28.528Z,98585.22
2023-04-03T02:11:56.702Z,98569.47
2023-04-03T02:14:24.933Z,98580.72
2023-04-03T02:16:53.222Z,98585.59
2023-04-03T02:19:24.206Z,98587.25
2023-04-03T02:21:52.347Z,98585.63
2023-04-03T02:24:21.892Z,98584.50
2023-04-03T02:26:49.955Z,98568.78
2023-04-03T02:29:18.463Z,98598.56
2023-04-03T02:31:46.553Z,98577.84
2023-04-03T02:34:14.718Z,98571.88
2023-04-03T02:36:43.897Z,98586.09
2023-04-03T02:39:13.543Z,98593.81
2023-04-03T02:41:43.124Z,98571.78
2023-04-03T02:44:17.034Z,98593.94
2023-04-03T02:46:45.355Z,98582.19
2023-04-03T02:49:13.480Z,98596.34
2023-04-03T02:51:41.709Z,98607.66
2023-04-03T02:54:10.947Z,98597.97
2023-04-03T02:56:43.308Z,98617.78
2023-04-03T02:59:11.429Z,98596.31
2023-04-03T03:01:41.343Z,98594.78
2023-04-03T03:04:09.668Z,98589.28
2023-04-03T03:06:37.974Z,98605.97
2023-04-03T03:09:06.742Z,98610.22
2023-04-03T03:11:34.912Z,98596.72
2023-04-03T03:14:05.755Z,98590.41
2023-04-03T03:16:35.067Z,98616.34
2023-04-03T03:19:03.106Z,98607.16
2023-04-03T03:21:31.167Z,98617.50
2023-04-03T03:23:59.297Z,98607.91
2023-04-03T03:26:28.649Z,98615.22
2023-04-03T03:28:57.030Z,98599.75
2023-04-03T03:31:26.533Z,98615.69
2023-04-03T03:33:54.690Z,98582.09
2023-04-03T03:36:23.890Z,98613.13
2023-04-03T03:38:51.989Z,98601.94
2023-04-03T03:41:20.308Z,98610.31
2023-04-03T03:43:48.960Z,98626.84
2023-04-03T03:46:18.390Z,98604.81
2023-04-03T03:48:48.214Z,98634.66
2023-04-03T03:51:17.737Z,98621.81
2023-04-03T03:53:46.682Z,98644.50
2023-04-03T03:56:17.792Z,98634.78
2023-04-03T03:58:47.274Z,98614.13
2023-04-03T04:01:16.297Z,98645.91
2023-04-03T04:03:50.045Z,98645.38
2023-04-03T04:06:22.298Z,98648.59
2023-04-03T04:08:51.175Z,98630.53
2023-04-03T04:11:19.841Z,98645.63
2023-04-03T04:13:48.975Z,98643.63
2023-04-03T04:16:19.065Z,98648.91
2023-04-03T04:18:47.258Z,98651.47
2023-04-03T04:21:16.907Z,98657.16
2023-04-03T04:23:46.401Z,98654.44
2023-04-03T04:26:15.689Z,98645.22
2023-04-03T04:28:43.773Z,98642.34
2023-04-03T04:31:12.251Z,98661.56
2023-04-03T04:33:40.571Z,98659.25
2023-04-03T04:36:11.299Z,98657.59
2023-04-03T04:38:41.148Z,98664.53
2023-04-03T04:41:09.447Z,98660.88
2023-04-03T04:43:38.099Z,98661.09
2023-04-03T04:46:08.650Z,98674.03
2023-04-03T04:48:42.522Z,98679.47
2023-04-03T04:51:11.921Z,98679.34
2023-04-03T04:53:42.555Z,98667.66
2023-04-03T04:56:14.418Z,98663.47
2023-04-03T04:58:43.693Z,98655.28
2023-04-03T05:01:13.278Z,98684.44
2023-04-03T05:03:53.364Z,98675.91
2023-04-03T05:06:21.527Z,98651.28
2023-04-03T05:08:51.644Z,98665.97
2023-04-03T05:11:21.380Z,98688.00
2023-04-03T05:13:53.886Z,98696.25
2023-04-03T05:16:23.963Z,98680.19
2023-04-03T05:18:52.433Z,98707.56
2023-04-03T05:21:24.378Z,98708.91
2023-04-03T05:23:55.046Z,98701.31
2023-04-03T05:26:23.300Z,98700.03
2023-04-03T05:28:52.592Z,98673.47
2023-04-03T05:31:21.933Z,98711.28
2023-04-03T05:33:50.805Z,98714.66
2023-04-03T05:36:20.418Z,98701.22
2023-04-03T05:38:57.360Z,98706.34
2023-04-03T05:41:26.994Z,98698.56
2023-04-03T05:43:55.652Z,98666.94
2023-04-03T05:46:25.887Z,98708.31
2023-04-03T05:48:57.259Z,98715.31
2023-04-03T05:51:33.017Z,98722.69
2023-04-03T05:54:15.020Z,98706.47
2023-04-03T05:56:43.636Z,98708.47
2023-04-03T05:59:12.163Z,98753.50
2023-04-03T06:01:40.875Z,98701.06
2023-04-03T06:04:10.265Z,98696.50
2023-04-03T06:06:47.594Z,98718.91
2023-04-03T06:09:18.443Z,98707.94
2023-04-03T06:11:47.067Z,98727.78
2023-04-03T06:14:15.743Z,98728.16
2023-04-03T06:16:44.751Z,98740.63
2023-04-03T06:19:13.998Z,98748.78
2023-04-03T06:21:48.285Z,98739.41
2023-04-03T06:24:19.151Z,98727.34
2023-04-03T06:26:49.564Z,98720.09
2023-04-03T06:29:17.885Z,98746.69
2023-04-03T06:31:46.040Z,98750.44
2023-04-03T06:34:15.026Z,98749.78
2023-04-03T06:36:43.325Z,98738.47
2023-04-03T06:39:15.545Z,98758.13
2023-04-03T06:41:45.168Z,98753.25
2023-04-03T06:44:14.557Z,98768.38
2023-04-03T06:46:43.049Z,98778.28
2023-04-03T06:49:11.753Z,98764.84
2023-04-03T06:51:39.850Z,98778.47
2023-04-03T06:54:09.308Z,98774.72
2023-04-03T06:56:37.783Z,98757.41
2023-04-03T06:59:07.268Z,98774.50
2023-04-03T07:01:35.639Z,98777.66
2023-04-03T07:04:03.890Z,98769.44
2023-04-03T07:06:32.886Z,98775.78
2023-04-03T07:09:01.027Z,98780.84
2023-04-03T07:11:29.175Z,98768.94
2023-04-03T07:13:57.654Z,98787.81
2023-04-03T07:16:27.121Z,98778.00
2023-04-03T07:18:55.254Z,98749.31
2023-04-03T07:21:23.371Z,98803.56
2023-04-03T07:23:51.808Z,98768.28
2023-04-03T07:26:21.824Z,98788.13
2023-04-03T07:28:50.947Z,98783.00
2023-04-03T07:31:19.811Z,98805.97
2023-04-03T07:33:49.304Z,98780.84
2023-04-03T07:36:20.461Z,98804.72
2023-04-03T07:38:48.672Z,98815.59
2023-04-03T07:41:18.623Z,98814.88
2023-04-03T07:43:48.046Z,98815.84
2023-04-03T07:46:16.306Z,98820.88
2023-04-03T07:48:44.405Z,98798.88
2023-04-03T07:51:14.266Z,98837.25
2023-04-03T07:53:42.393Z,98836.94
2023-04-03T07:56:11.582Z,98836.13
2023-04-03T07:58:39.893Z,98806.44
2023-04-03T08:01:08.428Z,98822.66
2023-04-03T08:03:36.873Z,98818.81
2023-04-03T08:06:11.798Z,98845.91
2023-04-03T08:08:45.093Z,98810.34
2023-04-03T08:11:13.694Z,98825.31
2023-04-03T08:13:42.617Z,98855.38
2023-04-03T08:16:16.928Z,98839.28
2023-04-03T08:18:45.096Z,98811.81
2023-04-03T08:21:14.521Z,98814.00
2023-04-03T08:23:44.422Z,98825.25
2023-04-03T08:26:14.343Z,98796.53
2023-04-03T08:28:42.741Z,98825.13
2023-04-03T08:31:13.681Z,98848.56
2023-04-03T08:33:42.430Z,98832.44
2023-04-03T08:36:19.849Z,98850.06
2023-04-03T08:38:49.653Z,98855.16
2023-04-03T08:41:22.944Z,98877.81
2023-04-03T08:44:00.415Z,98837.66
2023-04-03T08:46:41.572Z,98842.47
2023-04-03T08:49:15.853Z,98826.44
2023-04-03T08:51:51.889Z,98854.22
2023-04-03T08:54:30.228Z,98835.38
2023-04-03T08:57:01.365Z,98866.81
2023-04-03T08:59:34.666Z,98855.50
2023-04-03T09:02:08.090Z,98855.69
2023-04-03T09:04:36.290Z,98888.75
2023-04-03T09:07:10.385Z,98867.50
2023-04-03T09:09:43.073Z,98906.22
2023-04-03T09:12:21.864Z,98865.94
2023-04-03T09:14:59.741Z,98854.44
2023-04-03T09:17:40.448Z,98869.69
2023-04-03T09:20:21.005Z,98899.94
2023-04-03T09:22:53.005Z,98893.41
2023-04-03T09:25:27.169Z,98865.06
2023-04-03T09:27:56.064Z,98891.81
2023-04-03T09:30:26.633Z,98899.97
2023-04-03T09:32:56.309Z,98880.59
2023-04-03T09:35:32.854Z,98907.66
2023-04-03T09:38:22.942Z,98906.22
2023-04-03T09:41:04.856Z,98910.69
2023-04-03T09:43:35.593Z,98891.06
2023-04-03T09:46:28.671Z,98900.94
2023-04-03T09:49:08.371Z,98869.25
2023-04-03T09:51:39.213Z,98879.66
2023-04-03T09:54:42.981Z,98896.72
2023-04-03T09:57:15.249Z,98918.41
2023-04-03T09:59:48.368Z,98917.41
2023-04-03T10:02:31.415Z,98916.97
2023-04-03T10:07:38.134Z,98935.22
2023-04-03T10:10:21.211Z,98922.53
2023-04-03T10:12:51.076Z,98901.00
2023-04-03T10:15:21.128Z,98912.38
2023-04-03T10:18:01.340Z,98900.75
2023-04-03T10:20:38.435Z,98932.22
2023-04-03T10:23:18.933Z,98924.00
2023-04-03T10:25:58.344Z,98926.63
2023-04-03T10:28:37.460Z,98925.00
2023-04-03T10:31:16.998Z,98947.91
